Time;durP1;ratioP1;P1;durP2;ratioP2;P2;SDS_P1;SDS_P2;PMS_P1;PMS_P2;Temp;Humidity;BMP_temperature;BMP_pressure;BME280_temperature;BME280_humidity;BME280_pressure;Samples;Min_cycle;Max_cycle;Signal;HPM_P1;HPM_P2
2022/07/12 00:02:06;;;;;;;1.48;1.38;;;22.30;63.30;;;;;;4973964;28;20205;-70
2022/07/12 00:04:32;;;;;;;1.60;1.50;;;22.20;63.20;;;;;;4982120;28;20677;-71
2022/07/12 00:06:57;;;;;;;1.70;1.60;;;22.30;63.30;;;;;;4970868;28;20194;-71
2022/07/12 00:09:23;;;;;;;1.33;1.33;;;22.20;63.20;;;;;;4955132;28;20193;-71
2022/07/12 00:11:49;;;;;;;1.50;1.40;;;22.20;63.20;;;;;;4954404;28;20297;-71
2022/07/12 00:14:15;;;;;;;1.65;1.55;;;22.20;63.20;;;;;;4954283;28;20289;-71
2022/07/12 00:16:41;;;;;;;1.83;1.73;;;22.20;63.20;;;;;;4954203;29;20714;-71
2022/07/12 00:19:08;;;;;;;1.60;1.50;;;22.20;63.20;;;;;;4969664;28;20194;-71
2022/07/12 00:21:34;;;;;;;1.90;1.80;;;22.20;63.20;;;;;;4970622;28;20202;-71
2022/07/12 00:24:00;;;;;;;1.50;1.40;;;22.20;63.20;;;;;;4954203;28;20249;-71
2022/07/12 00:26:26;;;;;;;1.52;1.42;;;22.20;63.20;;;;;;4954345;29;20201;-71
2022/07/12 00:28:53;;;;;;;1.60;1.50;;;22.20;63.20;;;;;;4953598;28;20213;-71
2022/07/12 00:31:20;;;;;;;2.78;1.65;;;22.20;63.20;;;;;;4954480;29;20646;-71
2022/07/12 00:33:46;;;;;;;2.00;1.77;;;22.20;63.20;;;;;;4963222;28;20218;-71
2022/07/12 00:36:12;;;;;;;1.60;1.50;;;22.20;63.20;;;;;;4960299;28;20245;-71
2022/07/12 00:38:38;;;;;;;1.50;1.40;;;22.20;63.20;;;;;;4969351;28;20615;-71
2022/07/12 00:41:04;;;;;;;1.52;1.42;;;22.20;63.20;;;;;;4954147;29;20210;-71
2022/07/12 00:43:30;;;;;;;1.77;1.67;;;22.20;63.20;;;;;;4937716;29;20182;-71
2022/07/12 00:45:56;;;;;;;1.70;1.60;;;22.20;63.20;;;;;;4969689;28;20299;-71
2022/07/12 00:48:23;;;;;;;1.55;1.45;;;22.20;63.20;;;;;;4969032;28;20568;-71
2022/07/12 00:50:49;;;;;;;1.50;1.40;;;22.20;63.20;;;;;;4969815;28;20272;-71
2022/07/12 00:53:18;;;;;;;1.60;1.50;;;22.10;63.10;;;;;;4953679;28;20194;-71
2022/07/12 00:55:44;;;;;;;1.70;1.60;;;22.20;63.20;;;;;;4969463;28;20222;-71
2022/07/12 00:58:10;;;;;;;1.80;1.70;;;22.20;63.20;;;;;;4968334;28;20191;-72
2022/07/12 01:00:36;;;;;;;1.20;1.20;;;22.10;63.10;;;;;;4969473;28;20225;-71
2022/07/12 01:03:03;;;;;;;1.40;1.30;;;22.20;63.20;;;;;;4956294;28;20174;-71
2022/07/12 01:05:30;;;;;;;1.60;1.50;;;22.20;63.20;;;;;;4965457;28;20193;-71
2022/07/12 01:07:57;;;;;;;1.63;1.52;;;22.20;63.20;;;;;;4936951;28;20195;-71
2022/07/12 01:10:23;;;;;;;1.60;1.50;;;22.10;63.10;;;;;;4953369;29;20214;-71
2022/07/12 01:12:50;;;;;;;1.60;1.50;;;22.10;63.10;;;;;;4953428;28;20214;-71
2022/07/12 01:15:16;;;;;;;1.50;1.40;;;22.20;63.20;;;;;;4954355;28;20213;-71
2022/07/12 01:17:45;;;;;;;1.60;1.50;;;22.20;63.20;;;;;;4969011;28;20255;-71
2022/07/12 01:20:11;;;;;;;1.60;1.50;;;22.10;63.10;;;;;;4969291;28;20230;-71
2022/07/12 01:22:43;;;;;;;1.70;1.60;;;22.10;63.10;;;;;;4970057;28;20265;-71
2022/07/12 01:25:09;;;;;;;1.63;1.52;;;22.10;63.10;;;;;;4954506;28;20186;-71
2022/07/12 01:27:37;;;;;;;1.60;1.50;;;22.10;63.10;;;;;;4953361;29;20186;-71
2022/07/12 01:30:04;;;;;;;1.58;1.48;;;22.10;63.10;;;;;;4953758;28;20202;-71
2022/07/12 01:32:31;;;;;;;1.77;1.67;;;22.10;63.10;;;;;;4956890;28;20194;-71
2022/07/12 01:35:04;;;;;;;1.73;1.63;;;22.10;63.10;;;;;;4979642;28;20213;-71
2022/07/12 01:37:37;;;;;;;1.77;1.67;;;22.10;63.10;;;;;;4972407;28;20185;-70
2022/07/12 01:40:06;;;;;;;1.77;1.67;;;22.10;63.10;;;;;;4988371;28;20241;-71
2022/07/12 01:42:32;;;;;;;1.63;1.52;;;22.10;63.10;;;;;;4988506;28;20182;-71
2022/07/12 01:44:59;;;;;;;1.40;1.30;;;22.10;63.90;;;;;;4988187;28;20186;-71
2022/07/12 01:47:30;;;;;;;1.50;1.40;;;22.10;63.10;;;;;;4956108;28;20576;-70
2022/07/12 01:49:57;;;;;;;1.60;1.50;;;22.10;63.10;;;;;;4972928;28;20166;-71
2022/07/12 01:52:23;;;;;;;1.27;1.27;;;22.10;63.10;;;;;;4972453;28;20190;-71
2022/07/12 01:54:49;;;;;;;1.80;1.70;;;22.10;63.10;;;;;;4972201;28;20229;-71
2022/07/12 01:57:15;;;;;;;1.55;1.45;;;22.10;63.10;;;;;;4952020;28;20209;-71
2022/07/12 01:59:42;;;;;;;1.48;1.38;;;22.10;63.10;;;;;;4949442;28;20258;-72
2022/07/12 02:02:08;;;;;;;1.60;1.50;;;22.10;63.10;;;;;;4933928;29;20211;-71
2022/07/12 02:04:35;;;;;;;1.55;1.45;;;22.10;63.10;;;;;;4948840;28;20189;-71
2022/07/12 02:07:01;;;;;;;1.67;1.58;;;22.10;63.10;;;;;;4950933;28;20194;-71
2022/07/12 02:09:27;;;;;;;1.52;1.42;;;22.10;63.10;;;;;;4952124;28;20198;-71
2022/07/12 02:11:54;;;;;;;1.58;1.48;;;22.10;63.10;;;;;;4967566;28;20218;-71
2022/07/12 02:14:20;;;;;;;1.80;1.70;;;22.10;63.10;;;;;;4977140;28;20182;-71
2022/07/12 02:16:45;;;;;;;1.60;1.50;;;22.00;63.00;;;;;;4975912;28;20634;-71
2022/07/12 02:19:13;;;;;;;1.50;1.40;;;22.10;63.10;;;;;;4958957;28;20273;-71
2022/07/12 02:21:40;;;;;;;1.70;1.60;;;22.10;63.10;;;;;;4975747;28;20209;-71
2022/07/12 02:24:06;;;;;;;1.40;1.30;;;22.10;63.10;;;;;;4975790;28;20174;-71
2022/07/12 02:26:36;;;;;;;1.60;1.50;;;22.10;63.10;;;;;;4991810;28;20189;-71
2022/07/12 02:29:06;;;;;;;1.40;1.40;;;22.10;63.10;;;;;;4975028;28;20249;-71
2022/07/12 02:31:32;;;;;;;1.77;1.67;;;22.00;63.00;;;;;;4991970;28;20228;-71
2022/07/12 02:33:58;;;;;;;1.67;1.58;;;22.10;63.00;;;;;;4967212;28;20209;-71
2022/07/12 02:36:25;;;;;;;1.60;1.50;;;22.00;62.90;;;;;;4961001;28;20217;-71
2022/07/12 02:38:51;;;;;;;1.60;1.50;;;22.00;62.90;;;;;;4956686;28;20175;-71
2022/07/12 02:41:17;;;;;;;1.60;1.50;;;22.00;62.90;;;;;;4972438;28;20206;-71
2022/07/12 02:43:43;;;;;;;1.70;1.60;;;22.00;62.90;;;;;;4972434;28;20634;-71
2022/07/12 02:46:13;;;;;;;1.42;1.33;;;22.00;63.00;;;;;;4955760;29;20179;-71
2022/07/12 02:48:41;;;;;;;1.67;1.58;;;22.00;62.80;;;;;;4956551;29;20178;-71
2022/07/12 02:51:07;;;;;;;1.50;1.40;;;22.00;62.90;;;;;;4955923;29;20285;-71
2022/07/12 02:53:35;;;;;;;1.60;1.50;;;22.00;62.70;;;;;;4971869;28;20730;-71
2022/07/12 02:56:01;;;;;;;1.60;1.50;;;22.00;62.90;;;;;;4939715;29;20273;-71
2022/07/12 02:58:27;;;;;;;1.40;1.30;;;22.00;62.70;;;;;;4955287;29;20242;-71
2022/07/12 03:00:53;;;;;;;1.60;1.50;;;22.00;62.70;;;;;;4955531;28;20250;-71
2022/07/12 03:03:19;;;;;;;2.17;1.40;;;22.00;62.90;;;;;;4961138;28;20181;-71
2022/07/12 03:05:45;;;;;;;1.70;1.60;;;22.00;62.80;;;;;;4965943;28;20218;-71
2022/07/12 03:08:12;;;;;;;1.50;1.40;;;22.00;62.70;;;;;;4971092;28;20191;-71
2022/07/12 03:10:39;;;;;;;1.60;1.50;;;22.00;62.80;;;;;;4956815;28;20216;-71
2022/07/12 03:13:06;;;;;;;1.65;1.55;;;22.00;62.90;;;;;;4955699;29;20182;-71
2022/07/12 03:15:32;;;;;;;1.60;1.50;;;22.00;62.90;;;;;;4959254;28;20202;-71
2022/07/12 03:18:03;;;;;;;1.50;1.40;;;22.00;62.80;;;;;;4960467;28;20194;-71
2022/07/12 03:20:30;;;;;;;1.52;1.42;;;21.90;62.70;;;;;;4971348;28;20213;-71
2022/07/12 03:22:57;;;;;;;1.15;1.15;;;22.00;62.80;;;;;;4954473;29;20244;-71
2022/07/12 03:25:24;;;;;;;1.52;1.42;;;22.00;62.70;;;;;;4955351;28;20286;-71
2022/07/12 03:27:50;;;;;;;1.65;1.55;;;22.00;62.70;;;;;;4955475;28;20201;-71
2022/07/12 03:30:16;;;;;;;1.30;1.25;;;22.00;62.80;;;;;;4955590;28;20202;-71
2022/07/12 03:32:43;;;;;;;1.83;1.73;;;22.00;62.70;;;;;;4955536;28;20281;-72
2022/07/12 03:35:10;;;;;;;1.80;1.70;;;21.90;62.60;;;;;;4982380;28;20205;-71
2022/07/12 03:37:44;;;;;;;1.55;1.45;;;21.90;62.60;;;;;;4975465;28;20166;-72
2022/07/12 03:40:12;;;;;;;1.95;1.85;;;21.90;62.60;;;;;;4989793;28;20214;-71
2022/07/12 03:42:38;;;;;;;1.77;1.67;;;22.00;62.70;;;;;;4975405;28;20178;-71
2022/07/12 03:45:04;;;;;;;1.50;1.40;;;21.90;62.70;;;;;;4974047;28;20190;-71
2022/07/12 03:47:31;;;;;;;1.80;1.70;;;22.00;62.60;;;;;;4974066;28;20286;-71
2022/07/12 03:49:57;;;;;;;1.70;1.60;;;22.00;62.70;;;;;;4973267;28;20576;-71
2022/07/12 03:52:23;;;;;;;1.60;1.50;;;22.00;62.70;;;;;;4990295;28;20189;-71
2022/07/12 03:54:49;;;;;;;1.55;1.45;;;21.90;62.60;;;;;;4990360;28;20244;-71
2022/07/12 03:57:15;;;;;;;1.60;1.50;;;22.00;62.70;;;;;;4973877;28;20193;-71
2022/07/12 03:59:45;;;;;;;1.70;1.60;;;21.90;62.60;;;;;;4956983;28;20186;-72
2022/07/12 04:02:12;;;;;;;1.67;1.58;;;22.00;62.70;;;;;;4975029;28;20212;-71
2022/07/12 04:04:39;;;;;;;1.40;1.30;;;22.00;62.70;;;;;;4966468;28;20324;-71
2022/07/12 04:07:05;;;;;;;1.63;1.52;;;21.90;62.50;;;;;;4954462;28;20214;-71
2022/07/12 04:09:31;;;;;;;1.40;1.38;;;21.90;62.60;;;;;;4970038;28;20266;-71
2022/07/12 04:11:57;;;;;;;1.58;1.48;;;21.90;62.60;;;;;;4954431;29;20210;-71
2022/07/12 04:14:23;;;;;;;1.40;1.30;;;22.00;62.70;;;;;;4954154;28;20199;-72
2022/07/12 04:16:49;;;;;;;1.60;1.50;;;22.00;62.60;;;;;;4955450;28;20179;-71
2022/07/12 04:19:15;;;;;;;1.60;1.50;;;22.00;62.60;;;;;;4969891;28;20194;-71
2022/07/12 04:21:40;;;;;;;1.65;1.55;;;21.90;62.50;;;;;;4954204;29;20198;-71
2022/07/12 04:24:07;;;;;;;1.58;1.48;;;21.90;62.60;;;;;;4954189;28;20287;-71
2022/07/12 04:26:33;;;;;;;1.60;1.50;;;21.90;62.80;;;;;;4954260;29;20269;-71
2022/07/12 04:28:59;;;;;;;1.50;1.40;;;22.00;62.70;;;;;;4969938;28;20218;-71
2022/07/12 04:31:25;;;;;;;1.60;1.50;;;21.90;62.60;;;;;;4969900;28;20305;-71
2022/07/12 04:33:51;;;;;;;1.60;1.50;;;21.90;62.60;;;;;;4955170;28;20196;-71
2022/07/12 04:36:17;;;;;;;1.67;1.58;;;21.90;62.70;;;;;;4967188;28;20224;-71
2022/07/12 04:38:43;;;;;;;1.73;1.63;;;21.90;62.60;;;;;;4971254;28;20196;-72
2022/07/12 04:41:09;;;;;;;1.60;1.50;;;21.90;62.60;;;;;;4956892;28;20203;-71
2022/07/12 04:43:35;;;;;;;1.80;1.70;;;21.90;62.50;;;;;;4937606;28;20195;-71
2022/07/12 04:46:11;;;;;;;1.45;1.35;;;22.00;62.60;;;;;;4937563;28;20195;-71
2022/07/12 04:48:37;;;;;;;1.60;1.50;;;21.90;62.40;;;;;;4954325;28;20217;-72
2022/07/12 04:51:03;;;;;;;1.17;1.17;;;22.00;62.40;;;;;;4969674;28;20297;-71
2022/07/12 04:53:30;;;;;;;1.70;1.60;;;21.90;62.30;;;;;;4953683;29;20214;-71
2022/07/12 04:55:56;;;;;;;1.35;1.27;;;21.90;62.30;;;;;;4969336;28;20214;-71
2022/07/12 04:58:23;;;;;;;1.35;1.30;;;22.00;62.30;;;;;;4944408;28;20209;-71
2022/07/12 05:00:50;;;;;;;1.60;1.50;;;22.00;62.20;;;;;;4934154;29;20281;-71
2022/07/12 05:03:16;;;;;;;1.70;1.60;;;21.90;62.20;;;;;;4934295;29;20192;-71
2022/07/12 05:05:42;;;;;;;1.60;1.50;;;21.90;62.10;;;;;;4935557;29;20184;-71
2022/07/12 05:08:08;;;;;;;1.50;1.40;;;21.90;62.10;;;;;;4933922;29;20207;-71
2022/07/12 05:10:34;;;;;;;1.90;1.80;;;21.90;62.00;;;;;;4972507;28;20284;-72
2022/07/12 05:13:00;;;;;;;1.60;1.50;;;22.00;62.10;;;;;;4964468;28;20197;-72
2022/07/12 05:15:26;;;;;;;1.70;1.60;;;21.90;62.10;;;;;;4988758;28;20223;-71
2022/07/12 05:17:52;;;;;;;1.90;1.80;;;21.90;62.10;;;;;;4953280;28;20220;-71
2022/07/12 05:20:19;;;;;;;1.80;1.70;;;21.90;62.10;;;;;;4953916;28;20270;-71
2022/07/12 05:22:44;;;;;;;1.77;1.50;;;21.90;62.10;;;;;;4953290;29;20201;-71
2022/07/12 05:25:10;;;;;;;1.60;1.50;;;21.90;62.10;;;;;;4969192;28;20579;-72
2022/07/12 05:27:37;;;;;;;1.90;1.80;;;21.90;62.10;;;;;;4954241;28;20276;-71
2022/07/12 05:30:04;;;;;;;2.03;1.92;;;21.90;62.10;;;;;;4952384;28;20285;-71
2022/07/12 05:32:30;;;;;;;1.92;1.83;;;21.90;62.10;;;;;;4969137;28;20198;-71
2022/07/12 05:34:56;;;;;;;1.50;1.40;;;21.90;62.20;;;;;;4954338;28;20202;-71
2022/07/12 05:37:24;;;;;;;1.80;1.70;;;21.90;62.10;;;;;;4954001;29;20186;-71
2022/07/12 05:39:51;;;;;;;1.80;1.70;;;21.90;62.20;;;;;;4952446;29;20317;-71
2022/07/12 05:42:18;;;;;;;1.60;1.50;;;21.90;62.20;;;;;;4967769;28;20181;-71
2022/07/12 05:44:43;;;;;;;1.60;1.50;;;21.90;62.20;;;;;;4973044;28;20280;-71
2022/07/12 05:47:09;;;;;;;1.77;1.67;;;21.90;62.30;;;;;;4976576;28;20328;-71
2022/07/12 05:49:35;;;;;;;2.35;1.63;;;21.90;62.30;;;;;;4975947;28;20189;-71
2022/07/12 05:54:45;;;;;;;1.92;1.83;;;21.90;62.40;;;;;;4992555;28;20237;-71
2022/07/12 05:57:11;;;;;;;1.73;1.60;;;21.90;62.50;;;;;;4992665;28;20217;-71
2022/07/12 05:59:37;;;;;;;1.70;1.60;;;21.90;62.60;;;;;;4991630;28;20233;-72
2022/07/12 06:02:06;;;;;;;2.22;2.03;;;21.90;62.60;;;;;;4976207;28;20326;-71
2022/07/12 06:04:32;;;;;;;1.63;1.52;;;21.90;62.90;;;;;;4976204;28;20186;-71
2022/07/12 06:06:58;;;;;;;1.52;1.42;;;21.90;62.90;;;;;;4977234;28;20190;-71
2022/07/12 06:09:23;;;;;;;1.60;1.50;;;21.90;63.70;;;;;;4959222;28;20190;-71
2022/07/12 06:11:49;;;;;;;1.30;1.30;;;21.90;62.90;;;;;;4949962;28;20209;-71
2022/07/12 06:14:15;;;;;;;1.65;1.55;;;21.90;62.90;;;;;;4973028;28;20225;-72
2022/07/12 06:16:41;;;;;;;1.35;1.25;;;21.90;62.90;;;;;;4944862;28;20229;-71
2022/07/12 06:19:06;;;;;;;1.95;1.50;;;22.00;63.00;;;;;;4966794;28;20182;-72
2022/07/12 06:21:33;;;;;;;1.42;1.33;;;21.90;62.90;;;;;;4969980;28;20220;-71
2022/07/12 06:23:59;;;;;;;1.65;1.55;;;21.90;62.90;;;;;;4967479;28;20185;-71
2022/07/12 06:26:25;;;;;;;1.70;1.58;;;21.90;62.90;;;;;;4959057;28;20202;-71
2022/07/12 06:28:51;;;;;;;1.85;1.75;;;21.90;62.90;;;;;;4975214;28;20203;-71
2022/07/12 06:31:17;;;;;;;1.50;1.40;;;22.00;63.00;;;;;;4961315;28;20217;-71
2022/07/12 06:33:43;;;;;;;1.60;1.50;;;22.00;63.00;;;;;;4954961;28;20187;-71
2022/07/12 06:36:08;;;;;;;1.45;1.35;;;22.00;63.00;;;;;;4955825;29;20218;-71
2022/07/12 06:38:34;;;;;;;2.42;1.60;;;22.00;63.00;;;;;;4956809;28;20179;-71
2022/07/12 06:41:00;;;;;;;1.65;1.40;;;22.00;63.00;;;;;;4964690;28;20206;-71
2022/07/12 06:43:26;;;;;;;1.60;1.50;;;22.00;63.00;;;;;;4972073;28;20182;-72
2022/07/12 06:45:52;;;;;;;1.50;1.40;;;22.00;63.00;;;;;;4971325;28;20194;-71
2022/07/12 06:48:18;;;;;;;1.60;1.50;;;22.00;63.00;;;;;;4979172;28;20190;-72
2022/07/12 06:50:44;;;;;;;1.58;1.48;;;21.90;62.90;;;;;;4972900;28;20260;-71
2022/07/12 06:53:14;;;;;;;1.50;1.40;;;22.00;63.00;;;;;;4966498;28;20190;-72
2022/07/12 06:55:42;;;;;;;1.50;1.40;;;22.00;63.00;;;;;;4963501;28;20205;-72
2022/07/12 06:58:08;;;;;;;1.70;1.60;;;22.00;63.00;;;;;;4957937;28;20276;-71
2022/07/12 07:00:34;;;;;;;1.50;1.40;;;21.90;63.00;;;;;;4966930;28;20297;-71
2022/07/12 07:03:00;;;;;;;1.60;1.50;;;22.00;63.20;;;;;;4973957;28;20189;-71
2022/07/12 07:05:26;;;;;;;1.38;1.27;;;21.90;63.00;;;;;;4954454;28;20277;-71
2022/07/12 07:07:52;;;;;;;1.25;1.25;;;22.00;63.00;;;;;;4956313;28;20195;-71
2022/07/12 07:10:18;;;;;;;1.35;1.25;;;22.00;63.00;;;;;;4961486;28;20205;-71
2022/07/12 07:12:44;;;;;;;1.50;1.40;;;22.00;63.10;;;;;;4953046;28;20225;-72
2022/07/12 07:15:10;;;;;;;1.50;1.40;;;22.00;63.10;;;;;;4964485;28;20206;-71
2022/07/12 07:17:36;;;;;;;1.70;1.60;;;22.00;63.10;;;;;;4944084;28;20183;-71
2022/07/12 07:20:02;;;;;;;1.35;1.35;;;22.00;63.00;;;;;;4966241;28;20201;-71
2022/07/12 07:22:28;;;;;;;1.40;1.30;;;22.00;63.10;;;;;;4974170;28;20185;-71
2022/07/12 07:24:54;;;;;;;1.40;1.30;;;22.00;63.10;;;;;;4944922;28;20529;-71
2022/07/12 07:27:20;;;;;;;1.20;1.20;;;22.10;63.30;;;;;;4941503;28;20651;-71
2022/07/12 07:32:30;;;;;;;1.40;1.30;;;22.00;63.10;;;;;;4952463;28;20187;-72
2022/07/12 07:34:56;;;;;;;1.40;1.38;;;22.10;63.20;;;;;;4936133;28;20226;-71
2022/07/12 07:37:23;;;;;;;1.38;1.33;;;22.00;63.20;;;;;;4935867;29;20187;-71
2022/07/12 07:39:49;;;;;;;1.30;1.23;;;22.00;63.10;;;;;;4960091;28;20584;-71
2022/07/12 07:42:15;;;;;;;1.50;1.40;;;22.10;63.40;;;;;;4948431;28;20202;-71
2022/07/12 07:44:41;;;;;;;1.52;1.42;;;22.10;63.40;;;;;;4951004;28;20192;-72
2022/07/12 07:47:06;;;;;;;1.40;1.30;;;22.10;63.40;;;;;;4969967;28;20182;-71
2022/07/12 07:49:32;;;;;;;1.30;1.30;;;22.10;63.50;;;;;;4946398;28;20200;-71
2022/07/12 07:51:58;;;;;;;1.40;1.40;;;22.10;63.50;;;;;;4970256;28;20210;-72
2022/07/12 07:54:24;;;;;;;1.23;1.23;;;22.10;63.10;;;;;;4954508;29;20248;-71
2022/07/12 07:56:49;;;;;;;1.67;1.40;;;22.20;63.20;;;;;;4972186;28;20206;-72
2022/07/12 07:59:15;;;;;;;1.48;1.38;;;22.10;63.10;;;;;;4944299;29;20194;-71
2022/07/12 08:01:48;;;;;;;1.13;1.13;;;22.10;63.10;;;;;;4964973;28;20249;-71
2022/07/12 08:04:15;;;;;;;1.10;1.10;;;22.10;63.30;;;;;;4967635;28;20185;-71
2022/07/12 08:06:42;;;;;;;1.50;1.40;;;22.10;63.40;;;;;;4970240;28;20190;-71
2022/07/12 08:09:08;;;;;;;1.50;1.40;;;22.10;63.50;;;;;;4958402;28;20189;-71
2022/07/12 08:11:35;;;;;;;1.45;1.35;;;22.10;63.50;;;;;;4958468;28;20214;-71
2022/07/12 08:14:03;;;;;;;1.23;1.23;;;22.10;63.50;;;;;;4938299;29;20191;-71
2022/07/12 08:16:30;;;;;;;1.30;1.30;;;22.10;63.50;;;;;;4960948;28;20209;-71
2022/07/12 08:18:56;;;;;;;1.73;1.63;;;22.10;63.70;;;;;;4956922;28;20289;-70
2022/07/12 08:21:23;;;;;;;1.60;1.50;;;22.10;63.50;;;;;;4965405;28;20288;-71
2022/07/12 08:23:50;;;;;;;1.40;1.30;;;22.10;63.30;;;;;;4960800;28;20190;-71
2022/07/12 08:26:15;;;;;;;1.33;1.23;;;22.10;63.10;;;;;;4965509;28;20178;-71
2022/07/12 08:28:41;;;;;;;1.63;1.52;;;22.10;63.10;;;;;;4970640;28;20225;-71
2022/07/12 08:31:07;;;;;;;1.33;1.30;;;22.10;63.10;;;;;;4965067;28;20205;-71
2022/07/12 08:33:33;;;;;;;1.60;1.35;;;22.20;63.20;;;;;;4944702;28;20624;-71
2022/07/12 08:35:59;;;;;;;1.45;1.35;;;22.20;63.20;;;;;;4972550;28;20213;-72
2022/07/12 08:38:24;;;;;;;1.52;1.42;;;22.10;63.10;;;;;;4972989;28;20191;-72
2022/07/12 08:40:50;;;;;;;1.70;1.60;;;22.20;63.20;;;;;;4963403;28;20213;-72
2022/07/12 08:43:16;;;;;;;1.23;1.20;;;22.20;63.30;;;;;;4967041;28;20185;-71
2022/07/12 08:45:42;;;;;;;1.48;1.40;;;22.20;63.20;;;;;;4972214;28;20178;-71
2022/07/12 08:48:08;;;;;;;1.70;1.60;;;22.20;63.20;;;;;;4966085;28;20194;-71
2022/07/12 08:50:35;;;;;;;1.58;1.48;;;22.20;63.20;;;;;;4956243;28;20231;-71
2022/07/12 08:53:01;;;;;;;1.50;1.40;;;22.20;63.30;;;;;;4973941;28;20196;-71
2022/07/12 08:55:36;;;;;;;1.73;1.63;;;22.20;63.20;;;;;;4956257;28;20221;-71
2022/07/12 08:58:06;;;;;;;1.17;1.17;;;22.20;63.20;;;;;;4946540;28;20189;-71
2022/07/12 09:00:33;;;;;;;1.50;1.40;;;22.20;63.20;;;;;;4976486;28;20704;-71
2022/07/12 09:03:02;;;;;;;1.15;1.15;;;22.20;63.20;;;;;;4963156;28;20255;-71
2022/07/12 09:05:30;;;;;;;1.38;1.30;;;22.20;63.20;;;;;;4966708;28;20186;-71
2022/07/12 09:08:07;;;;;;;1.52;1.42;;;22.30;63.30;;;;;;4962346;28;20198;-71
2022/07/12 09:10:54;;;;;;;1.75;1.30;;;22.30;63.30;;;;;;4944174;28;20221;-71
2022/07/12 09:13:53;;;;;;;1.50;1.40;;;22.30;63.30;;;;;;4962206;28;20186;-71
2022/07/12 09:16:23;;;;;;;1.50;1.40;;;22.30;63.30;;;;;;4968096;28;20210;-70
2022/07/12 09:18:50;;;;;;;1.48;1.38;;;22.30;63.30;;;;;;4945331;28;20190;-71
2022/07/12 09:21:29;;;;;;;1.52;1.42;;;22.30;63.30;;;;;;4960591;28;20202;-71
2022/07/12 09:23:57;;;;;;;1.58;1.48;;;22.20;63.30;;;;;;4969222;28;20182;-71
2022/07/12 09:26:29;;;;;;;1.60;1.50;;;22.20;63.30;;;;;;4937165;29;20198;-71
2022/07/12 09:29:05;;;;;;;2.00;1.23;;;22.20;63.30;;;;;;4952938;29;20174;-71
2022/07/12 09:37:17;;;;;;;1.52;1.42;;;22.30;63.30;;;;;;4972177;28;20217;-70
2022/07/12 09:39:44;;;;;;;1.55;1.45;;;22.30;63.30;;;;;;4956507;28;20217;-70
2022/07/12 09:42:12;;;;;;;1.50;1.40;;;22.30;63.30;;;;;;4954481;28;20249;-71
2022/07/12 09:44:42;;;;;;;1.67;1.30;;;22.30;63.40;;;;;;4963934;28;20650;-70
2022/07/12 09:47:15;;;;;;;1.35;1.25;;;22.30;63.40;;;;;;4972129;28;20182;-71
2022/07/12 09:49:45;;;;;;;1.70;1.60;;;22.40;63.40;;;;;;4960270;28;20252;-70
2022/07/12 09:52:24;;;;;;;1.85;1.75;;;22.30;63.40;;;;;;4969050;28;20217;-71
2022/07/12 09:54:52;;;;;;;2.65;1.90;;;22.40;63.50;;;;;;4976416;28;20263;-71
2022/07/12 09:57:27;;;;;;;2.42;1.83;;;22.30;63.50;;;;;;4966495;28;20196;-71
2022/07/12 09:59:53;;;;;;;3.28;1.85;;;22.40;63.50;;;;;;4976663;28;20196;-71
2022/07/12 10:02:22;;;;;;;2.88;2.05;;;22.30;63.50;;;;;;4966896;28;20301;-71
2022/07/12 10:04:48;;;;;;;3.45;1.73;;;22.30;63.50;;;;;;4954621;28;20191;-71
2022/07/12 10:07:16;;;;;;;3.05;2.05;;;22.40;63.60;;;;;;4953597;28;20183;-72
2022/07/12 10:09:45;;;;;;;3.30;1.95;;;22.40;64.40;;;;;;4936986;28;20234;-71
2022/07/12 10:12:14;;;;;;;2.33;2.13;;;22.30;63.70;;;;;;4971963;28;20193;-72
2022/07/12 10:14:43;;;;;;;2.55;2.25;;;22.30;63.60;;;;;;4935776;28;20187;-72
2022/07/12 10:17:11;;;;;;;2.92;2.28;;;22.40;63.80;;;;;;4957468;28;20245;-72
2022/07/12 10:19:37;;;;;;;4.32;2.35;;;22.30;63.80;;;;;;4962509;28;20193;-72
2022/07/12 10:22:06;;;;;;;2.55;2.20;;;22.40;63.90;;;;;;4958820;28;20199;-71
2022/07/12 10:24:32;;;;;;;4.03;2.63;;;22.30;63.70;;;;;;4959964;28;20186;-71
2022/07/12 10:27:21;;;;;;;2.25;1.92;;;22.40;63.90;;;;;;4964763;28;20188;-71
2022/07/12 10:29:52;;;;;;;2.10;1.90;;;22.40;63.90;;;;;;4947002;28;20265;-72
2022/07/12 10:32:25;;;;;;;2.70;2.08;;;22.40;63.90;;;;;;4956983;28;20250;-71
2022/07/12 10:35:01;;;;;;;2.33;2.05;;;22.40;63.90;;;;;;4972192;28;20187;-71
2022/07/12 10:37:28;;;;;;;3.55;2.20;;;22.40;63.90;;;;;;4956248;28;20280;-71
2022/07/12 10:40:17;;;;;;;2.97;1.90;;;22.40;64.00;;;;;;4958805;28;20725;-71
2022/07/12 10:43:03;;;;;;;3.58;2.13;;;22.40;64.00;;;;;;4963084;28;20215;-71
2022/07/12 10:45:41;;;;;;;3.53;2.35;;;22.50;64.50;;;;;;4971986;28;20646;-72
2022/07/12 10:48:12;;;;;;;3.72;2.15;;;22.50;64.50;;;;;;4972270;28;20655;-71
2022/07/12 10:50:44;;;;;;;2.60;1.98;;;22.40;64.60;;;;;;4958630;28;20210;-71
2022/07/12 10:53:22;;;;;;;3.20;2.33;;;22.40;64.70;;;;;;4944550;29;20218;-72
2022/07/12 10:56:14;;;;;;;3.30;1.95;;;22.40;64.70;;;;;;4953599;28;20610;-72
2022/07/12 10:58:45;;;;;;;4.00;2.45;;;22.40;64.80;;;;;;4954771;28;20271;-71
2022/07/12 11:01:17;;;;;;;3.65;2.10;;;22.40;64.70;;;;;;4964023;28;20218;-71
2022/07/12 11:03:53;;;;;;;4.20;2.20;;;22.40;64.90;;;;;;4965061;28;20238;-71
2022/07/12 11:06:22;;;;;;;3.92;2.10;;;22.40;64.80;;;;;;4974474;28;20345;-71
2022/07/12 11:09:07;;;;;;;5.95;2.15;;;22.40;64.80;;;;;;4949471;29;20179;-71
2022/07/12 11:11:39;;;;;;;3.22;1.90;;;22.40;64.90;;;;;;4964156;28;20618;-71
2022/07/12 11:14:05;;;;;;;2.05;1.80;;;22.40;64.70;;;;;;4957501;28;20197;-71
2022/07/12 11:16:32;;;;;;;4.50;2.42;;;22.40;64.80;;;;;;4961701;28;20591;-71
2022/07/12 11:19:00;;;;;;;3.40;2.00;;;22.40;64.90;;;;;;4957038;28;20178;-71
2022/07/12 11:21:25;;;;;;;2.60;1.65;;;22.40;64.70;;;;;;4950581;28;20725;-71
2022/07/12 11:23:52;;;;;;;3.03;2.05;;;22.40;64.80;;;;;;4969613;28;20277;-71
2022/07/12 11:26:19;;;;;;;2.83;1.48;;;22.40;64.70;;;;;;4948292;28;20195;-71
2022/07/12 11:28:48;;;;;;;3.42;2.30;;;22.40;64.70;;;;;;4936644;29;20211;-71
2022/07/12 11:31:17;;;;;;;2.47;1.88;;;22.40;64.80;;;;;;4935271;29;20214;-71
2022/07/12 11:33:50;;;;;;;2.28;1.50;;;22.40;65.50;;;;;;4986418;28;20186;-71
2022/07/12 11:36:17;;;;;;;3.83;1.63;;;22.40;64.70;;;;;;4971244;28;20213;-71
2022/07/12 11:38:46;;;;;;;3.67;2.00;;;22.50;64.80;;;;;;4966206;28;20227;-71
2022/07/12 11:41:14;;;;;;;2.88;1.70;;;22.40;64.80;;;;;;4958846;28;20206;-71
2022/07/12 11:43:41;;;;;;;2.65;1.70;;;22.40;64.60;;;;;;4957602;28;20206;-71
2022/07/12 11:46:10;;;;;;;3.70;1.95;;;22.40;64.60;;;;;;4947578;28;20197;-71
2022/07/12 11:48:37;;;;;;;2.92;1.70;;;22.40;64.70;;;;;;4950237;29;20282;-71
2022/07/12 11:51:06;;;;;;;3.80;1.70;;;22.40;64.70;;;;;;4970380;28;20213;-71
2022/07/12 11:53:34;;;;;;;1.73;1.48;;;22.50;64.70;;;;;;4954866;29;20186;-71
2022/07/12 11:56:02;;;;;;;2.55;1.83;;;22.40;64.50;;;;;;4970641;28;20214;-71
2022/07/12 11:58:29;;;;;;;4.82;2.00;;;22.40;64.60;;;;;;4967833;28;20277;-71
2022/07/12 12:00:56;;;;;;;2.35;1.75;;;22.40;64.60;;;;;;4964456;28;20702;-71
2022/07/12 12:03:23;;;;;;;3.85;2.00;;;22.40;64.60;;;;;;4981850;28;20181;-71
2022/07/12 12:05:53;;;;;;;2.97;1.80;;;22.40;64.60;;;;;;4967083;28;20202;-71
2022/07/12 12:08:19;;;;;;;3.15;1.80;;;22.40;64.70;;;;;;4965607;28;20196;-70
2022/07/12 12:11:05;;;;;;;3.47;1.90;;;22.50;64.70;;;;;;4964552;28;20222;-70
2022/07/12 12:13:31;;;;;;;2.38;1.63;;;22.50;64.70;;;;;;4956235;28;20298;-70
2022/07/12 12:16:02;;;;;;;2.00;1.55;;;22.50;64.80;;;;;;4955316;28;20305;-71
2022/07/12 12:18:40;;;;;;;2.50;1.60;;;22.50;64.90;;;;;;4978231;28;20191;-70
2022/07/12 12:21:11;;;;;;;1.77;1.48;;;22.40;64.80;;;;;;4950468;29;20210;-70
2022/07/12 12:23:41;;;;;;;3.15;1.60;;;22.40;64.80;;;;;;4919278;29;20187;-71
2022/07/12 12:26:14;;;;;;;1.73;1.63;;;22.50;64.70;;;;;;4935058;29;20278;-71
2022/07/12 12:28:54;;;;;;;1.60;1.50;;;22.50;64.70;;;;;;4942826;28;20297;-71
2022/07/12 12:31:22;;;;;;;2.58;1.73;;;22.40;64.60;;;;;;4962211;28;20309;-71
2022/07/12 12:33:51;;;;;;;2.38;1.30;;;22.50;64.40;;;;;;4954423;28;20194;-71
2022/07/12 12:36:25;;;;;;;4.03;1.70;;;22.50;64.40;;;;;;4960290;28;20589;-71
2022/07/12 12:39:01;;;;;;;1.50;1.40;;;22.40;64.50;;;;;;4964927;28;20186;-71
2022/07/12 12:41:29;;;;;;;1.77;1.50;;;22.40;64.60;;;;;;4973286;28;20300;-71
2022/07/12 12:44:00;;;;;;;1.88;1.77;;;22.50;64.60;;;;;;4955129;28;20234;-71
2022/07/12 12:49:51;;;;;;;2.70;1.40;;;22.50;64.50;;;;;;4968816;28;20233;-71
2022/07/12 12:52:18;;;;;;;3.50;1.52;;;22.50;64.50;;;;;;4955802;28;20206;-71
2022/07/12 12:54:45;;;;;;;1.65;1.55;;;22.50;64.50;;;;;;4963991;28;20193;-71
2022/07/12 12:57:11;;;;;;;1.98;1.45;;;22.50;64.50;;;;;;4972641;28;20688;-71
2022/07/12 12:59:38;;;;;;;1.70;1.45;;;22.50;64.50;;;;;;4972569;28;20189;-71
2022/07/12 13:02:06;;;;;;;4.03;1.42;;;22.50;64.70;;;;;;4965028;28;20300;-71
2022/07/12 13:04:34;;;;;;;1.50;1.40;;;22.50;64.50;;;;;;4956981;28;20187;-71
2022/07/12 13:07:01;;;;;;;3.72;1.50;;;22.50;64.60;;;;;;4953144;28;20185;-71